createdAt,value
2022-12-08T00:01:14.504Z,99351.84
2022-12-08T00:05:35.156Z,99357.54
2022-12-08T00:09:40.584Z,99358.58
2022-12-08T00:13:42.957Z,99360.02
2022-12-08T00:17:44.818Z,99354.36
2022-12-08T00:21:46.947Z,99357.59
2022-12-08T00:25:48.843Z,99367.71
2022-12-08T00:29:50.704Z,99372.11
2022-12-08T00:33:52.664Z,99376.31
2022-12-08T00:38:00.462Z,99379.41
2022-12-08T00:42:11.879Z,99380.49
2022-12-08T00:46:13.822Z,99385.73
2022-12-08T00:50:15.841Z,99394.45
2022-12-08T00:54:18.284Z,99402.28
2022-12-08T00:58:20.161Z,99407.70
2022-12-08T01:02:22.394Z,99410.21
2022-12-08T01:06:24.354Z,99417.77
2022-12-08T01:10:26.227Z,99425.41
2022-12-08T01:14:28.192Z,99428.14
2022-12-08T01:18:31.000Z,99430.02
2022-12-08T01:22:35.505Z,99426.09
2022-12-08T01:26:37.383Z,99425.49
2022-12-08T01:30:39.466Z,99431.23
2022-12-08T01:34:41.374Z,99434.79
2022-12-08T01:38:43.314Z,99430.41
2022-12-08T01:42:45.241Z,99430.24
2022-12-08T01:46:48.359Z,99423.70
2022-12-08T01:50:53.753Z,99424.02
2022-12-08T01:55:08.143Z,99424.77
2022-12-08T01:59:11.408Z,99429.27
2022-12-08T02:03:19.651Z,99426.40
2022-12-08T02:07:22.789Z,99427.05
2022-12-08T02:11:24.659Z,99425.60
2022-12-08T02:15:52.912Z,99423.84
2022-12-08T02:20:25.065Z,99430.85
2022-12-08T02:24:38.529Z,99439.71
2022-12-08T02:28:58.476Z,99444.55
2022-12-08T02:33:29.604Z,99448.98
2022-12-08T02:37:38.714Z,99447.95
2022-12-08T02:42:01.211Z,99448.09
2022-12-08T02:46:10.244Z,99451.25
2022-12-08T02:50:12.630Z,99450.17
2022-12-08T02:54:15.021Z,99460.31
2022-12-08T02:58:46.446Z,99465.61
2022-12-08T03:03:07.196Z,99472.09
2022-12-08T03:07:14.510Z,99471.41
2022-12-08T03:11:19.853Z,99472.84
2022-12-08T03:15:22.212Z,99472.54
2022-12-08T03:19:29.314Z,99476.59
2022-12-08T03:23:33.186Z,99476.35
2022-12-08T03:27:35.377Z,99481.79
2022-12-08T03:31:41.450Z,99488.63
2022-12-08T03:35:44.969Z,99491.33
2022-12-08T03:39:47.393Z,99495.65
2022-12-08T03:43:52.855Z,99500.02
2022-12-08T03:47:55.355Z,99497.17
2022-12-08T03:51:57.295Z,99497.36
2022-12-08T03:55:59.223Z,99499.27
2022-12-08T04:00:01.558Z,99503.89
2022-12-08T04:04:03.770Z,99505.11
2022-12-08T04:08:05.817Z,99511.06
2022-12-08T04:12:08.601Z,99517.11
2022-12-08T04:16:36.936Z,99517.79
2022-12-08T04:20:43.117Z,99519.63
2022-12-08T04:24:44.986Z,99526.02
2022-12-08T04:28:46.927Z,99532.48
2022-12-08T04:32:48.766Z,99535.84
2022-12-08T04:36:50.701Z,99541.81
2022-12-08T04:40:52.669Z,99541.04
2022-12-08T04:44:54.748Z,99543.77
2022-12-08T04:48:56.610Z,99534.30
2022-12-08T04:52:58.538Z,99533.59
2022-12-08T04:57:00.388Z,99532.85
2022-12-08T05:01:02.410Z,99536.07
2022-12-08T05:05:04.939Z,99529.77
2022-12-08T05:09:07.289Z,99541.10
2022-12-08T05:13:09.161Z,99544.70
2022-12-08T05:17:11.050Z,99539.06
2022-12-08T05:21:12.951Z,99542.80
2022-12-08T05:25:14.910Z,99546.11
2022-12-08T05:29:16.848Z,99544.52
2022-12-08T05:33:18.891Z,99540.53
2022-12-08T05:37:20.936Z,99548.57
2022-12-08T05:41:23.455Z,99552.77
2022-12-08T05:45:25.476Z,99551.98
2022-12-08T05:49:27.409Z,99554.16
2022-12-08T05:53:29.446Z,99552.76
2022-12-08T05:57:31.307Z,99556.70
2022-12-08T06:01:33.248Z,99566.81
2022-12-08T06:05:35.638Z,99573.14
2022-12-08T06:09:37.712Z,99577.64
2022-12-08T06:13:39.686Z,99570.67
2022-12-08T06:17:41.625Z,99573.02
2022-12-08T06:21:43.681Z,99581.75
2022-12-08T06:25:46.008Z,99588.47
2022-12-08T06:29:48.184Z,99590.38
2022-12-08T06:33:50.712Z,99593.66
2022-12-08T06:37:52.577Z,99592.70
2022-12-08T06:42:13.241Z,99593.48
2022-12-08T06:46:18.016Z,99597.58
2022-12-08T06:50:20.030Z,99596.41
2022-12-08T06:54:21.948Z,99601.58
2022-12-08T06:58:23.798Z,99606.95
2022-12-08T07:02:25.757Z,99616.41
2022-12-08T07:06:27.931Z,99622.53
2022-12-08T07:10:29.861Z,99626.33
2022-12-08T07:14:31.738Z,99633.31
2022-12-08T07:18:34.253Z,99629.81
2022-12-08T07:22:36.166Z,99636.05
2022-12-08T07:26:38.060Z,99640.46
2022-12-08T07:30:40.081Z,99646.83
2022-12-08T07:34:42.155Z,99644.95
2022-12-08T07:38:44.057Z,99647.58
2022-12-08T07:42:45.929Z,99653.52
2022-12-08T07:46:47.800Z,99650.55
2022-12-08T07:50:49.732Z,99651.45
2022-12-08T07:54:51.774Z,99651.08
2022-12-08T07:58:53.730Z,99653.88
2022-12-08T08:02:55.708Z,99653.00
2022-12-08T08:06:59.926Z,99659.86
2022-12-08T08:11:15.754Z,99663.64
2022-12-08T08:15:21.818Z,99672.81
2022-12-08T08:19:23.737Z,99675.16
2022-12-08T08:23:25.898Z,99676.96
2022-12-08T08:27:27.751Z,99678.58
2022-12-08T08:31:29.806Z,99676.61
2022-12-08T08:35:33.749Z,99680.39
2022-12-08T08:39:36.554Z,99677.75
2022-12-08T08:43:39.065Z,99678.40
2022-12-08T08:47:41.054Z,99674.33
2022-12-08T08:51:43.383Z,99675.26
2022-12-08T08:55:45.861Z,99677.86
2022-12-08T08:59:47.744Z,99676.48
2022-12-08T09:03:50.204Z,99682.00
2022-12-08T09:07:52.206Z,99682.11
2022-12-08T09:11:55.175Z,99676.54
2022-12-08T09:15:57.221Z,99673.95
2022-12-08T09:20:00.657Z,99673.65
2022-12-08T09:24:02.542Z,99675.92
2022-12-08T09:28:04.452Z,99669.61
2022-12-08T09:32:06.408Z,99669.92
2022-12-08T09:36:10.318Z,99660.45
2022-12-08T09:40:18.261Z,99657.52
2022-12-08T09:44:54.811Z,99660.46
2022-12-08T09:48:58.777Z,99659.65
2022-12-08T09:53:03.689Z,99657.20
2022-12-08T09:57:13.649Z,99656.16
2022-12-08T10:01:16.245Z,99659.96
2022-12-08T10:05:18.491Z,99659.46
2022-12-08T10:09:29.755Z,99658.89
2022-12-08T10:13:56.633Z,99658.73
2022-12-08T10:18:03.075Z,99652.20
2022-12-08T10:22:15.824Z,99650.11
2022-12-08T10:26:20.886Z,99650.14
2022-12-08T10:30:23.144Z,99649.73
2022-12-08T10:34:25.707Z,99648.27
2022-12-08T10:38:35.552Z,99643.13
2022-12-08T10:42:45.713Z,99635.83
2022-12-08T10:46:47.759Z,99637.34
2022-12-08T10:50:50.402Z,99633.27
2022-12-08T10:54:54.281Z,99626.58
2022-12-08T10:59:15.832Z,99623.35
2022-12-08T11:03:30.833Z,99613.84
2022-12-08T11:07:33.508Z,99612.11
2022-12-08T11:11:44.540Z,99610.34
2022-12-08T11:15:46.763Z,99607.30
2022-12-08T11:20:02.678Z,99602.50
2022-12-08T11:24:14.164Z,99594.58
2022-12-08T11:28:22.830Z,99598.14
2022-12-08T11:32:25.042Z,99593.70
2022-12-08T11:36:30.259Z,99592.52
2022-12-08T11:40:37.337Z,99590.88
2022-12-08T11:44:50.252Z,99592.13
2022-12-08T11:49:06.928Z,99586.33
2022-12-08T11:53:43.041Z,99588.23
2022-12-08T11:57:45.381Z,99585.95
2022-12-08T12:01:47.562Z,99585.66
2022-12-08T12:06:46.593Z,99583.80
2022-12-08T12:11:36.311Z,99582.81
2022-12-08T12:15:56.540Z,99575.84
2022-12-08T12:20:05.313Z,99569.41
2022-12-08T12:24:28.381Z,99562.71
2022-12-08T12:28:45.891Z,99557.85
2022-12-08T12:32:57.457Z,99555.70
2022-12-08T12:37:10.072Z,99558.88
2022-12-08T12:41:14.574Z,99551.45
2022-12-08T12:45:16.468Z,99546.79
2022-12-08T12:49:37.401Z,99549.67
2022-12-08T12:53:39.284Z,99553.23
2022-12-08T12:57:56.646Z,99550.63
2022-12-08T13:01:58.802Z,99549.66
2022-12-08T13:06:01.119Z,99548.05
2022-12-08T13:10:15.318Z,99547.39
2022-12-08T13:14:30.458Z,99545.31
2022-12-08T13:18:40.071Z,99545.52
2022-12-08T13:23:11.591Z,99540.21
2022-12-08T13:27:16.442Z,99542.63
2022-12-08T13:31:46.659Z,99540.96
2022-12-08T13:36:05.943Z,99537.84
2022-12-08T13:40:13.813Z,99532.54
2022-12-08T13:45:18.565Z,99529.64
2022-12-08T13:50:32.392Z,99528.34
2022-12-08T13:54:24.806Z,99529.55
2022-12-08T13:57:56.005Z,99530.26
2022-12-08T14:02:03.994Z,99527.55
2022-12-08T14:06:14.594Z,99530.91
2022-12-08T14:10:24.378Z,99530.82
2022-12-08T14:15:02.592Z,99533.92
2022-12-08T14:18:53.781Z,99538.58
2022-12-08T14:22:56.988Z,99539.88
2022-12-08T14:27:14.975Z,99539.58
2022-12-08T14:31:17.313Z,99536.45
2022-12-08T14:35:26.397Z,99535.68
2022-12-08T14:39:28.329Z,99535.09
2022-12-08T14:43:31.403Z,99535.95
2022-12-08T14:47:34.207Z,99532.54
2022-12-08T14:51:36.468Z,99536.48
2022-12-08T14:55:39.369Z,99536.57
2022-12-08T14:59:42.980Z,99535.81
2022-12-08T15:03:50.616Z,99535.48
2022-12-08T15:08:02.378Z,99531.09
2022-12-08T15:12:13.397Z,99530.29
2022-12-08T15:16:43.391Z,99530.85
2022-12-08T15:20:53.534Z,99537.90
2022-12-08T15:24:56.728Z,99536.03
2022-12-08T15:29:10.666Z,99535.52
2022-12-08T15:33:12.818Z,99530.75
2022-12-08T15:37:23.482Z,99531.02
2022-12-08T15:41:25.488Z,99525.05
2022-12-08T15:45:30.901Z,99524.32
2022-12-08T15:49:32.834Z,99521.38
2022-12-08T15:53:34.738Z,99519.13
2022-12-08T15:58:17.423Z,99518.14
2022-12-08T16:01:59.009Z,99519.88
2022-12-08T16:06:50.951Z,99522.67
2022-12-08T16:10:26.409Z,99520.46
2022-12-08T16:18:50.797Z,99518.70
2022-12-08T16:23:03.197Z,99520.30
2022-12-08T16:28:00.184Z,99519.01
2022-12-08T16:31:54.847Z,99514.00
2022-12-08T16:35:56.894Z,99516.60
2022-12-08T16:39:59.138Z,99518.68
2022-12-08T16:44:03.153Z,99517.07
2022-12-08T16:48:05.199Z,99517.71
2022-12-08T16:52:07.216Z,99520.59
2022-12-08T16:56:13.662Z,99519.64
2022-12-08T17:00:20.155Z,99518.09
2022-12-08T17:04:31.505Z,99518.52
2022-12-08T17:08:34.196Z,99516.05
2022-12-08T17:12:36.455Z,99518.54
2022-12-08T17:16:39.028Z,99517.24
2022-12-08T17:20:41.208Z,99514.66
2022-12-08T17:24:43.199Z,99517.28
2022-12-08T17:29:00.196Z,99518.59
2022-12-08T17:33:03.318Z,99521.16
2022-12-08T17:37:05.554Z,99522.38
2022-12-08T17:41:09.955Z,99519.10
2022-12-08T17:45:12.029Z,99520.92
2022-12-08T17:49:22.910Z,99522.56
2022-12-08T17:53:24.941Z,99526.91
2022-12-08T17:57:27.153Z,99530.36
2022-12-08T18:01:29.310Z,99530.72
2022-12-08T18:05:31.433Z,99533.29
2022-12-08T18:09:33.723Z,99531.39
2022-12-08T18:13:35.860Z,99528.00
2022-12-08T18:17:37.741Z,99532.69
2022-12-08T18:21:40.496Z,99530.83
2022-12-08T18:25:42.605Z,99530.15
2022-12-08T18:29:44.683Z,99529.77
2022-12-08T18:33:48.106Z,99528.29
2022-12-08T18:37:50.009Z,99525.06
2022-12-08T18:41:52.923Z,99518.02
2022-12-08T18:46:04.616Z,99518.66
2022-12-08T18:50:09.329Z,99521.73
2022-12-08T18:54:13.241Z,99520.54
2022-12-08T18:58:15.344Z,99522.64
2022-12-08T19:02:18.017Z,99523.80
2022-12-08T19:06:20.360Z,99524.52
2022-12-08T19:10:22.437Z,99520.50
2022-12-08T19:14:28.156Z,99524.31
2022-12-08T19:18:30.603Z,99524.63
2022-12-08T19:22:32.579Z,99529.77
2022-12-08T19:26:34.598Z,99526.35
2022-12-08T19:30:36.592Z,99526.69
2022-12-08T19:34:38.547Z,99524.13
2022-12-08T19:38:59.059Z,99520.46
2022-12-08T19:43:19.624Z,99517.98
2022-12-08T19:47:26.610Z,99507.16
2022-12-08T19:51:28.646Z,99508.60
2022-12-08T19:55:31.103Z,99507.91
2022-12-08T19:59:33.056Z,99507.34
2022-12-08T20:03:34.992Z,99505.03
2022-12-08T20:07:37.115Z,99507.91
2022-12-08T20:11:39.387Z,99510.86
2022-12-08T20:15:42.193Z,99510.23
2022-12-08T20:19:44.251Z,99506.02
2022-12-08T20:23:49.250Z,99503.14
2022-12-08T20:27:51.174Z,99504.48
2022-12-08T20:31:53.271Z,99506.50
2022-12-08T20:36:05.221Z,99506.68
2022-12-08T20:40:08.146Z,99507.63
2022-12-08T20:44:11.481Z,99508.66
2022-12-08T20:48:13.542Z,99508.50
2022-12-08T20:52:15.545Z,99507.02
2022-12-08T20:56:20.941Z,99507.89
2022-12-08T21:00:25.557Z,99500.02
2022-12-08T21:04:27.904Z,99499.57
2022-12-08T21:08:30.365Z,99504.98
2022-12-08T21:12:33.087Z,99507.45
2022-12-08T21:16:36.020Z,99506.95
2022-12-08T21:20:38.260Z,99506.17
2022-12-08T21:24:40.371Z,99503.98
2022-12-08T21:28:43.054Z,99501.00
2022-12-08T21:32:45.395Z,99497.21
2022-12-08T21:36:47.582Z,99496.03
2022-12-08T21:40:49.502Z,99490.25
2022-12-08T21:44:51.560Z,99483.64
2022-12-08T21:48:53.763Z,99479.64
2022-12-08T21:52:55.916Z,99477.58
2022-12-08T21:56:59.368Z,99475.19
2022-12-08T22:01:06.757Z,99475.63
2022-12-08T22:05:09.322Z,99473.17
2022-12-08T22:09:12.988Z,99472.42
2022-12-08T22:13:15.459Z,99473.69
2022-12-08T22:17:18.138Z,99475.52
2022-12-08T22:21:20.324Z,99473.38
2022-12-08T22:25:22.330Z,99475.24
2022-12-08T22:29:24.530Z,99475.35
2022-12-08T22:33:29.471Z,99479.04
2022-12-08T22:37:31.635Z,99478.00
2022-12-08T22:41:33.942Z,99477.04
2022-12-08T22:45:36.274Z,99472.96
2022-12-08T22:49:38.377Z,99477.27
2022-12-08T22:53:41.225Z,99474.75
2022-12-08T22:57:43.209Z,99476.29
2022-12-08T23:01:45.361Z,99477.08
2022-12-08T23:05:47.643Z,99480.96
2022-12-08T23:09:50.139Z,99482.05
2022-12-08T23:13:52.226Z,99475.75
2022-12-08T23:17:54.477Z,99479.48
2022-12-08T23:21:56.566Z,99479.02
2022-12-08T23:25:58.820Z,99478.20
2022-12-08T23:30:01.300Z,99476.77
2022-12-08T23:34:04.001Z,99476.23
2022-12-08T23:38:06.235Z,99474.81
2022-12-08T23:42:08.460Z,99477.30
2022-12-08T23:46:11.025Z,99475.42
2022-12-08T23:50:13.227Z,99475.89
2022-12-08T23:54:15.592Z,99477.95
2022-12-08T23:58:17.818Z,99476.20
